sensor_id;sensor_type;location;lat;lon;timestamp;pressure;altitude;pressure_sealevel;temperature;humidity
10097;BME280;5087;42.662;23.466;2023-08-30T00:01:27;94470.34;;;18.94;100.00
10097;BME280;5087;42.662;23.466;2023-08-30T00:03:54;94434.16;;;18.85;100.00
10097;BME280;5087;42.662;23.466;2023-08-30T00:06:23;94441.63;;;18.74;100.00
10097;BME280;5087;42.662;23.466;2023-08-30T00:08:50;94451.44;;;18.82;100.00
10097;BME280;5087;42.662;23.466;2023-08-30T00:11:18;94466.41;;;19.10;100.00
10097;BME280;5087;42.662;23.466;2023-08-30T00:13:45;94459.69;;;18.86;100.00
10097;BME280;5087;42.662;23.466;2023-08-30T00:16:13;94434.94;;;18.60;100.00
10097;BME280;5087;42.662;23.466;2023-08-30T00:18:42;94450.66;;;18.71;100.00
10097;BME280;5087;42.662;23.466;2023-08-30T00:21:10;94446.34;;;18.62;100.00
10097;BME280;5087;42.662;23.466;2023-08-30T00:23:38;94460.09;;;18.66;100.00
10097;BME280;5087;42.662;23.466;2023-08-30T00:26:06;94455.75;;;18.54;100.00
10097;BME280;5087;42.662;23.466;2023-08-30T00:28:33;94427.06;;;18.37;100.00
10097;BME280;5087;42.662;23.466;2023-08-30T00:31:00;94465.56;;;18.51;100.00
10097;BME280;5087;42.662;23.466;2023-08-30T00:33:27;94390.94;;;18.10;100.00
10097;BME280;5087;42.662;23.466;2023-08-30T00:35:58;94443.16;;;18.42;100.00
10097;BME280;5087;42.662;23.466;2023-08-30T00:38:27;94401.13;;;18.16;100.00
10097;BME280;5087;42.662;23.466;2023-08-30T00:40:56;94450.63;;;18.42;100.00
10097;BME280;5087;42.662;23.466;2023-08-30T00:43:24;94478.13;;;18.42;100.00
10097;BME280;5087;42.662;23.466;2023-08-30T00:45:51;94425.47;;;18.18;100.00
10097;BME280;5087;42.662;23.466;2023-08-30T00:48:20;94452.16;;;18.35;100.00
10097;BME280;5087;42.662;23.466;2023-08-30T00:50:48;94473.81;;;18.48;100.00
10097;BME280;5087;42.662;23.466;2023-08-30T00:53:15;94470.22;;;18.26;100.00
10097;BME280;5087;42.662;23.466;2023-08-30T00:55:44;94488.28;;;18.27;100.00
10097;BME280;5087;42.662;23.466;2023-08-30T00:58:13;94482.75;;;18.16;100.00
10097;BME280;5087;42.662;23.466;2023-08-30T01:00:41;94481.97;;;18.12;100.00
10097;BME280;5087;42.662;23.466;2023-08-30T01:03:09;94483.50;;;18.13;100.00
10097;BME280;5087;42.662;23.466;2023-08-30T01:05:37;94450.41;;;17.77;100.00
10097;BME280;5087;42.662;23.466;2023-08-30T01:08:04;94445.69;;;17.74;100.00
10097;BME280;5087;42.662;23.466;2023-08-30T01:10:41;94502.72;;;18.06;100.00
10097;BME280;5087;42.662;23.466;2023-08-30T01:13:18;94510.66;;;18.32;100.00
10097;BME280;5087;42.662;23.466;2023-08-30T01:15:47;94451.25;;;17.88;100.00
10097;BME280;5087;42.662;23.466;2023-08-30T01:18:17;94447.63;;;17.66;100.00
10097;BME280;5087;42.662;23.466;2023-08-30T01:20:46;94470.84;;;17.90;100.00
10097;BME280;5087;42.662;23.466;2023-08-30T01:23:23;94454.75;;;17.85;100.00
10097;BME280;5087;42.662;23.466;2023-08-30T01:25:57;94472.91;;;18.04;100.00
10097;BME280;5087;42.662;23.466;2023-08-30T01:28:34;94439.41;;;17.69;100.00
10097;BME280;5087;42.662;23.466;2023-08-30T01:31:04;94493.19;;;17.85;100.00
10097;BME280;5087;42.662;23.466;2023-08-30T01:33:34;94469.84;;;17.43;100.00
10097;BME280;5087;42.662;23.466;2023-08-30T01:36:03;94415.69;;;16.76;100.00
10097;BME280;5087;42.662;23.466;2023-08-30T01:38:36;94421.91;;;16.66;100.00
10097;BME280;5087;42.662;23.466;2023-08-30T01:41:08;94478.56;;;17.00;100.00
10097;BME280;5087;42.662;23.466;2023-08-30T01:43:43;94437.16;;;16.67;100.00
10097;BME280;5087;42.662;23.466;2023-08-30T01:46:16;94497.06;;;17.14;100.00
10097;BME280;5087;42.662;23.466;2023-08-30T01:48:46;94435.75;;;16.84;100.00
10097;BME280;5087;42.662;23.466;2023-08-30T01:51:16;94477.81;;;17.06;100.00
10097;BME280;5087;42.662;23.466;2023-08-30T01:53:44;94458.59;;;16.99;100.00
10097;BME280;5087;42.662;23.466;2023-08-30T01:56:14;94471.94;;;17.04;100.00
10097;BME280;5087;42.662;23.466;2023-08-30T01:58:43;94493.56;;;17.17;100.00
10097;BME280;5087;42.662;23.466;2023-08-30T02:01:11;94507.25;;;17.13;100.00
10097;BME280;5087;42.662;23.466;2023-08-30T02:03:39;94424.84;;;16.46;100.00
10097;BME280;5087;42.662;23.466;2023-08-30T02:06:10;94446.31;;;16.41;100.00
10097;BME280;5087;42.662;23.466;2023-08-30T02:09:04;94437.00;;;16.49;100.00
10097;BME280;5087;42.662;23.466;2023-08-30T02:11:46;94509.31;;;16.78;100.00
10097;BME280;5087;42.662;23.466;2023-08-30T02:14:19;94420.28;;;16.17;100.00
10097;BME280;5087;42.662;23.466;2023-08-30T02:16:57;94490.31;;;16.59;100.00
10097;BME280;5087;42.662;23.466;2023-08-30T02:19:34;94479.22;;;16.44;100.00
10097;BME280;5087;42.662;23.466;2023-08-30T02:22:02;94425.81;;;16.24;100.00
10097;BME280;5087;42.662;23.466;2023-08-30T02:24:30;94465.38;;;16.30;100.00
10097;BME280;5087;42.662;23.466;2023-08-30T02:26:58;94504.38;;;16.54;100.00
10097;BME280;5087;42.662;23.466;2023-08-30T02:29:28;94487.88;;;16.46;100.00
10097;BME280;5087;42.662;23.466;2023-08-30T02:31:58;94429.63;;;16.12;100.00
10097;BME280;5087;42.662;23.466;2023-08-30T02:34:27;94428.59;;;16.27;100.00
10097;BME280;5087;42.662;23.466;2023-08-30T02:37:01;94475.19;;;16.31;100.00
10097;BME280;5087;42.662;23.466;2023-08-30T02:39:32;94492.38;;;16.28;100.00
10097;BME280;5087;42.662;23.466;2023-08-30T02:42:03;94479.09;;;16.30;100.00
10097;BME280;5087;42.662;23.466;2023-08-30T02:44:44;94433.44;;;16.04;100.00
10097;BME280;5087;42.662;23.466;2023-08-30T02:47:15;94425.53;;;15.95;100.00
10097;BME280;5087;42.662;23.466;2023-08-30T02:49:43;94420.84;;;15.95;100.00
10097;BME280;5087;42.662;23.466;2023-08-30T02:52:12;94425.22;;;16.04;100.00
10097;BME280;5087;42.662;23.466;2023-08-30T02:54:41;94479.94;;;16.34;100.00
10097;BME280;5087;42.662;23.466;2023-08-30T02:57:09;94448.41;;;16.13;100.00
10097;BME280;5087;42.662;23.466;2023-08-30T02:59:44;94477.13;;;16.27;100.00
10097;BME280;5087;42.662;23.466;2023-08-30T03:02:13;94445.19;;;16.04;100.00
10097;BME280;5087;42.662;23.466;2023-08-30T03:04:41;94482.13;;;16.21;100.00
10097;BME280;5087;42.662;23.466;2023-08-30T03:07:12;94499.59;;;16.43;100.00
10097;BME280;5087;42.662;23.466;2023-08-30T03:09:42;94492.53;;;16.42;100.00
10097;BME280;5087;42.662;23.466;2023-08-30T03:12:11;94425.88;;;15.90;100.00
10097;BME280;5087;42.662;23.466;2023-08-30T03:14:58;94511.94;;;16.30;100.00
10097;BME280;5087;42.662;23.466;2023-08-30T03:17:41;94501.00;;;16.30;100.00
10097;BME280;5087;42.662;23.466;2023-08-30T03:20:16;94456.09;;;16.01;100.00
10097;BME280;5087;42.662;23.466;2023-08-30T03:23:28;94457.25;;;16.00;100.00
10097;BME280;5087;42.662;23.466;2023-08-30T03:26:08;94489.72;;;16.01;100.00
10097;BME280;5087;42.662;23.466;2023-08-30T03:28:42;94442.00;;;15.68;100.00
10097;BME280;5087;42.662;23.466;2023-08-30T03:31:17;94427.47;;;15.60;100.00
10097;BME280;5087;42.662;23.466;2023-08-30T03:33:47;94458.41;;;15.68;100.00
10097;BME280;5087;42.662;23.466;2023-08-30T03:36:22;94517.00;;;15.94;100.00
10097;BME280;5087;42.662;23.466;2023-08-30T03:38:53;94466.97;;;15.63;100.00
10097;BME280;5087;42.662;23.466;2023-08-30T03:41:31;94438.81;;;15.32;100.00
10097;BME280;5087;42.662;23.466;2023-08-30T03:44:03;94443.50;;;15.31;100.00
10097;BME280;5087;42.662;23.466;2023-08-30T03:46:36;94464.03;;;15.48;100.00
10097;BME280;5087;42.662;23.466;2023-08-30T03:49:05;94490.84;;;15.66;100.00
10097;BME280;5087;42.662;23.466;2023-08-30T03:51:33;94484.19;;;15.67;100.00
10097;BME280;5087;42.662;23.466;2023-08-30T03:54:02;94428.31;;;15.34;100.00
10097;BME280;5087;42.662;23.466;2023-08-30T03:56:30;94417.22;;;15.23;100.00
10097;BME280;5087;42.662;23.466;2023-08-30T03:58:59;94456.94;;;15.44;100.00
10097;BME280;5087;42.662;23.466;2023-08-30T04:01:26;94443.41;;;15.55;100.00
10097;BME280;5087;42.662;23.466;2023-08-30T04:03:56;94470.94;;;15.69;100.00
10097;BME280;5087;42.662;23.466;2023-08-30T04:06:24;94475.44;;;15.85;100.00
10097;BME280;5087;42.662;23.466;2023-08-30T04:08:51;94457.38;;;15.80;100.00
10097;BME280;5087;42.662;23.466;2023-08-30T04:11:23;94458.75;;;15.63;100.00
10097;BME280;5087;42.662;23.466;2023-08-30T04:14:05;94515.81;;;16.25;100.00
10097;BME280;5087;42.662;23.466;2023-08-30T04:16:37;94491.00;;;16.11;100.00
10097;BME280;5087;42.662;23.466;2023-08-30T04:19:12;94507.16;;;16.20;100.00
10097;BME280;5087;42.662;23.466;2023-08-30T04:21:57;94467.81;;;16.01;100.00
10097;BME280;5087;42.662;23.466;2023-08-30T04:24:38;94500.56;;;16.24;100.00
10097;BME280;5087;42.662;23.466;2023-08-30T04:27:14;94539.72;;;16.66;100.00
10097;BME280;5087;42.662;23.466;2023-08-30T04:30:05;94503.56;;;16.50;100.00
10097;BME280;5087;42.662;23.466;2023-08-30T04:32:59;94478.41;;;16.40;100.00
10097;BME280;5087;42.662;23.466;2023-08-30T04:38:39;94518.72;;;17.26;100.00
10097;BME280;5087;42.662;23.466;2023-08-30T04:41:07;94529.88;;;17.55;100.00
10097;BME280;5087;42.662;23.466;2023-08-30T04:43:36;94543.50;;;17.40;100.00
10097;BME280;5087;42.662;23.466;2023-08-30T04:46:03;94518.13;;;17.54;100.00
10097;BME280;5087;42.662;23.466;2023-08-30T04:48:31;94546.09;;;17.82;100.00
10097;BME280;5087;42.662;23.466;2023-08-30T04:51:00;94546.69;;;18.13;100.00
10097;BME280;5087;42.662;23.466;2023-08-30T04:53:28;94573.91;;;18.47;100.00
10097;BME280;5087;42.662;23.466;2023-08-30T04:55:59;94524.34;;;18.14;100.00
10097;BME280;5087;42.662;23.466;2023-08-30T04:58:28;94558.06;;;18.11;100.00
10097;BME280;5087;42.662;23.466;2023-08-30T05:00:58;94518.72;;;17.93;100.00
10097;BME280;5087;42.662;23.466;2023-08-30T05:03:26;94570.31;;;17.58;100.00
10097;BME280;5087;42.662;23.466;2023-08-30T05:05:53;94571.13;;;17.66;100.00
10097;BME280;5087;42.662;23.466;2023-08-30T05:08:21;94534.28;;;17.67;100.00
10097;BME280;5087;42.662;23.466;2023-08-30T05:10:53;94517.09;;;17.77;100.00
10097;BME280;5087;42.662;23.466;2023-08-30T05:13:23;94550.16;;;17.95;100.00
10097;BME280;5087;42.662;23.466;2023-08-30T05:15:51;94552.03;;;17.87;100.00
10097;BME280;5087;42.662;23.466;2023-08-30T05:18:19;94528.88;;;17.85;100.00
10097;BME280;5087;42.662;23.466;2023-08-30T05:20:47;94559.78;;;17.75;100.00
10097;BME280;5087;42.662;23.466;2023-08-30T05:23:15;94541.03;;;17.84;100.00
10097;BME280;5087;42.662;23.466;2023-08-30T05:25:43;94516.97;;;17.63;100.00
10097;BME280;5087;42.662;23.466;2023-08-30T05:28:15;94533.56;;;17.81;100.00
10097;BME280;5087;42.662;23.466;2023-08-30T05:30:44;94556.38;;;17.92;100.00
10097;BME280;5087;42.662;23.466;2023-08-30T05:33:34;94539.97;;;17.99;100.00
10097;BME280;5087;42.662;23.466;2023-08-30T05:36:29;94573.19;;;17.80;100.00
10097;BME280;5087;42.662;23.466;2023-08-30T05:39:15;94575.97;;;17.87;100.00
10097;BME280;5087;42.662;23.466;2023-08-30T05:41:46;94590.84;;;17.82;100.00
10097;BME280;5087;42.662;23.466;2023-08-30T05:44:13;94575.16;;;17.86;100.00
10097;BME280;5087;42.662;23.466;2023-08-30T05:46:42;94564.72;;;18.10;100.00
10097;BME280;5087;42.662;23.466;2023-08-30T05:49:11;94570.66;;;18.16;100.00
10097;BME280;5087;42.662;23.466;2023-08-30T05:51:38;94518.28;;;17.83;100.00
10097;BME280;5087;42.662;23.466;2023-08-30T05:54:06;94574.78;;;18.73;100.00
10097;BME280;5087;42.662;23.466;2023-08-30T05:56:33;94548.06;;;18.73;100.00
10097;BME280;5087;42.662;23.466;2023-08-30T05:59:01;94563.47;;;19.07;100.00
10097;BME280;5087;42.662;23.466;2023-08-30T06:01:28;94567.78;;;19.62;100.00
10097;BME280;5087;42.662;23.466;2023-08-30T06:03:56;94506.06;;;19.45;100.00
10097;BME280;5087;42.662;23.466;2023-08-30T06:06:24;94575.94;;;20.20;100.00
10097;BME280;5087;42.662;23.466;2023-08-30T06:08:53;94566.88;;;20.23;100.00
10097;BME280;5087;42.662;23.466;2023-08-30T06:11:20;94581.09;;;20.07;100.00
10097;BME280;5087;42.662;23.466;2023-08-30T06:13:48;94548.84;;;20.11;100.00
10097;BME280;5087;42.662;23.466;2023-08-30T06:16:15;94571.44;;;20.59;100.00
10097;BME280;5087;42.662;23.466;2023-08-30T06:18:42;94552.53;;;20.61;100.00
10097;BME280;5087;42.662;23.466;2023-08-30T06:21:11;94555.19;;;20.82;100.00
10097;BME280;5087;42.662;23.466;2023-08-30T06:23:38;94548.22;;;20.60;100.00
10097;BME280;5087;42.662;23.466;2023-08-30T06:26:06;94536.66;;;20.86;100.00
10097;BME280;5087;42.662;23.466;2023-08-30T06:28:33;94570.59;;;21.36;100.00
10097;BME280;5087;42.662;23.466;2023-08-30T06:31:01;94524.91;;;21.28;100.00
10097;BME280;5087;42.662;23.466;2023-08-30T06:33:28;94561.19;;;21.30;100.00
10097;BME280;5087;42.662;23.466;2023-08-30T06:35:56;94550.78;;;20.14;100.00
10097;BME280;5087;42.662;23.466;2023-08-30T06:38:25;94548.31;;;21.12;100.00
10097;BME280;5087;42.662;23.466;2023-08-30T06:40:53;94550.97;;;21.76;100.00
10097;BME280;5087;42.662;23.466;2023-08-30T06:43:20;94561.22;;;22.13;100.00
10097;BME280;5087;42.662;23.466;2023-08-30T06:45:48;94531.81;;;21.96;100.00
10097;BME280;5087;42.662;23.466;2023-08-30T06:48:16;94561.59;;;22.16;100.00
10097;BME280;5087;42.662;23.466;2023-08-30T06:50:43;94554.25;;;22.40;100.00
10097;BME280;5087;42.662;23.466;2023-08-30T06:53:10;94554.81;;;22.58;100.00
10097;BME280;5087;42.662;23.466;2023-08-30T06:55:40;94546.72;;;22.06;100.00
10097;BME280;5087;42.662;23.466;2023-08-30T06:58:07;94564.66;;;22.25;100.00
10097;BME280;5087;42.662;23.466;2023-08-30T07:00:37;94578.41;;;22.67;100.00
10097;BME280;5087;42.662;23.466;2023-08-30T07:03:06;94544.50;;;22.59;100.00
10097;BME280;5087;42.662;23.466;2023-08-30T07:05:37;94566.69;;;23.14;100.00
10097;BME280;5087;42.662;23.466;2023-08-30T07:08:10;94511.81;;;23.08;100.00
10097;BME280;5087;42.662;23.466;2023-08-30T07:10:39;94560.25;;;23.24;100.00
10097;BME280;5087;42.662;23.466;2023-08-30T07:13:06;94530.72;;;22.86;100.00
10097;BME280;5087;42.662;23.466;2023-08-30T07:15:36;94517.81;;;22.76;100.00
10097;BME280;5087;42.662;23.466;2023-08-30T07:18:03;94553.78;;;23.03;100.00
10097;BME280;5087;42.662;23.466;2023-08-30T07:20:31;94559.88;;;23.22;100.00
10097;BME280;5087;42.662;23.466;2023-08-30T07:22:59;94502.38;;;23.30;100.00
10097;BME280;5087;42.662;23.466;2023-08-30T07:25:26;94549.88;;;23.28;100.00
10097;BME280;5087;42.662;23.466;2023-08-30T07:27:55;94563.56;;;23.63;100.00
10097;BME280;5087;42.662;23.466;2023-08-30T07:30:22;94560.72;;;24.14;100.00
10097;BME280;5087;42.662;23.466;2023-08-30T07:32:49;94552.03;;;23.88;100.00
10097;BME280;5087;42.662;23.466;2023-08-30T07:35:17;94561.75;;;24.00;100.00
10097;BME280;5087;42.662;23.466;2023-08-30T07:37:44;94565.63;;;24.26;100.00
10097;BME280;5087;42.662;23.466;2023-08-30T07:40:11;94562.34;;;24.72;100.00
10097;BME280;5087;42.662;23.466;2023-08-30T07:42:39;94561.91;;;25.10;100.00
10097;BME280;5087;42.662;23.466;2023-08-30T07:45:08;94538.59;;;24.50;100.00
10097;BME280;5087;42.662;23.466;2023-08-30T07:47:36;94518.53;;;24.02;100.00
10097;BME280;5087;42.662;23.466;2023-08-30T07:50:05;94548.22;;;24.26;100.00
10097;BME280;5087;42.662;23.466;2023-08-30T07:52:33;94543.06;;;24.64;100.00
10097;BME280;5087;42.662;23.466;2023-08-30T07:55:00;94524.97;;;25.13;100.00
10097;BME280;5087;42.662;23.466;2023-08-30T07:57:27;94500.81;;;24.57;100.00
10097;BME280;5087;42.662;23.466;2023-08-30T07:59:55;94532.19;;;24.33;100.00
10097;BME280;5087;42.662;23.466;2023-08-30T08:02:24;94531.72;;;24.95;100.00
10097;BME280;5087;42.662;23.466;2023-08-30T08:04:51;94548.84;;;25.76;100.00
10097;BME280;5087;42.662;23.466;2023-08-30T08:07:19;94561.22;;;24.49;100.00
10097;BME280;5087;42.662;23.466;2023-08-30T08:09:46;94551.69;;;24.10;100.00
10097;BME280;5087;42.662;23.466;2023-08-30T08:12:13;94533.09;;;23.39;100.00
10097;BME280;5087;42.662;23.466;2023-08-30T08:14:40;94553.88;;;23.75;100.00
10097;BME280;5087;42.662;23.466;2023-08-30T08:17:08;94559.41;;;23.51;100.00
10097;BME280;5087;42.662;23.466;2023-08-30T08:19:37;94517.13;;;23.94;100.00
10097;BME280;5087;42.662;23.466;2023-08-30T08:22:05;94559.44;;;24.59;100.00
10097;BME280;5087;42.662;23.466;2023-08-30T08:24:33;94558.97;;;25.01;100.00
10097;BME280;5087;42.662;23.466;2023-08-30T08:27:00;94515.69;;;25.53;100.00
10097;BME280;5087;42.662;23.466;2023-08-30T08:29:28;94550.69;;;25.83;100.00
10097;BME280;5087;42.662;23.466;2023-08-30T08:31:55;94550.25;;;23.78;100.00
10097;BME280;5087;42.662;23.466;2023-08-30T08:34:22;94545.66;;;23.91;100.00
10097;BME280;5087;42.662;23.466;2023-08-30T08:36:51;94555.03;;;24.21;100.00
10097;BME280;5087;42.662;23.466;2023-08-30T08:39:21;94559.72;;;24.04;100.00
10097;BME280;5087;42.662;23.466;2023-08-30T08:41:49;94565.69;;;23.79;100.00
10097;BME280;5087;42.662;23.466;2023-08-30T08:44:19;94534.16;;;23.93;100.00
10097;BME280;5087;42.662;23.466;2023-08-30T08:46:48;94505.81;;;24.45;100.00
10097;BME280;5087;42.662;23.466;2023-08-30T08:49:17;94564.91;;;24.22;100.00
10097;BME280;5087;42.662;23.466;2023-08-30T08:51:45;94547.81;;;25.37;100.00
10097;BME280;5087;42.662;23.466;2023-08-30T08:54:15;94542.84;;;25.28;100.00
10097;BME280;5087;42.662;23.466;2023-08-30T08:56:43;94552.94;;;25.72;100.00
10097;BME280;5087;42.662;23.466;2023-08-30T08:59:11;94523.94;;;24.50;100.00
10097;BME280;5087;42.662;23.466;2023-08-30T09:01:39;94535.25;;;25.49;100.00
10097;BME280;5087;42.662;23.466;2023-08-30T09:04:08;94540.03;;;25.49;100.00
10097;BME280;5087;42.662;23.466;2023-08-30T09:06:37;94537.53;;;25.01;100.00
10097;BME280;5087;42.662;23.466;2023-08-30T09:09:05;94546.34;;;24.59;100.00
10097;BME280;5087;42.662;23.466;2023-08-30T09:11:36;94548.81;;;25.47;100.00
10097;BME280;5087;42.662;23.466;2023-08-30T09:14:03;94554.72;;;24.96;100.00
10097;BME280;5087;42.662;23.466;2023-08-30T09:16:30;94548.34;;;24.18;100.00
10097;BME280;5087;42.662;23.466;2023-08-30T09:18:58;94521.44;;;24.56;100.00
10097;BME280;5087;42.662;23.466;2023-08-30T09:21:28;94515.13;;;24.92;100.00
10097;BME280;5087;42.662;23.466;2023-08-30T09:23:58;94520.09;;;24.84;100.00
10097;BME280;5087;42.662;23.466;2023-08-30T09:26:26;94547.28;;;25.09;100.00
10097;BME280;5087;42.662;23.466;2023-08-30T09:28:56;94539.91;;;25.19;100.00
10097;BME280;5087;42.662;23.466;2023-08-30T09:31:23;94517.75;;;25.82;99.54
10097;BME280;5087;42.662;23.466;2023-08-30T09:33:58;94509.56;;;25.91;95.44
10097;BME280;5087;42.662;23.466;2023-08-30T09:36:33;94516.50;;;26.29;91.67
10097;BME280;5087;42.662;23.466;2023-08-30T09:39:03;94510.09;;;25.40;96.41
10097;BME280;5087;42.662;23.466;2023-08-30T09:41:31;94530.81;;;25.35;93.95
10097;BME280;5087;42.662;23.466;2023-08-30T09:44:06;94544.63;;;25.55;94.49
10097;BME280;5087;42.662;23.466;2023-08-30T09:46:40;94531.41;;;26.64;84.95
10097;BME280;5087;42.662;23.466;2023-08-30T09:49:09;94530.56;;;27.45;81.24
10097;BME280;5087;42.662;23.466;2023-08-30T09:51:38;94529.97;;;27.63;72.31
10097;BME280;5087;42.662;23.466;2023-08-30T09:54:13;94519.38;;;28.41;71.98
10097;BME280;5087;42.662;23.466;2023-08-30T09:56:45;94502.59;;;28.19;69.16
10097;BME280;5087;42.662;23.466;2023-08-30T09:59:15;94517.53;;;27.29;82.94
10097;BME280;5087;42.662;23.466;2023-08-30T10:01:43;94522.72;;;25.74;86.84
10097;BME280;5087;42.662;23.466;2023-08-30T10:04:10;94496.69;;;27.46;83.14
10097;BME280;5087;42.662;23.466;2023-08-30T10:06:39;94507.03;;;28.29;78.80
10097;BME280;5087;42.662;23.466;2023-08-30T10:09:08;94501.66;;;27.77;79.14
10097;BME280;5087;42.662;23.466;2023-08-30T10:11:36;94476.06;;;27.31;71.74
10097;BME280;5087;42.662;23.466;2023-08-30T10:14:05;94463.53;;;26.19;75.96
10097;BME280;5087;42.662;23.466;2023-08-30T10:16:41;94492.25;;;27.10;78.05
10097;BME280;5087;42.662;23.466;2023-08-30T10:19:12;94491.88;;;28.39;71.74
10097;BME280;5087;42.662;23.466;2023-08-30T10:21:43;94475.84;;;28.53;68.34
10097;BME280;5087;42.662;23.466;2023-08-30T10:24:14;94461.81;;;28.97;65.98
10097;BME280;5087;42.662;23.466;2023-08-30T10:26:43;94459.75;;;28.57;64.65
10097;BME280;5087;42.662;23.466;2023-08-30T10:29:16;94485.59;;;29.52;63.09
10097;BME280;5087;42.662;23.466;2023-08-30T10:31:49;94471.19;;;29.72;59.06
10097;BME280;5087;42.662;23.466;2023-08-30T10:34:17;94477.25;;;30.26;60.07
10097;BME280;5087;42.662;23.466;2023-08-30T10:36:56;94458.28;;;29.93;62.02
10097;BME280;5087;42.662;23.466;2023-08-30T10:39:33;94483.63;;;29.21;61.06
10097;BME280;5087;42.662;23.466;2023-08-30T10:42:08;94481.16;;;30.01;57.15
10097;BME280;5087;42.662;23.466;2023-08-30T10:44:46;94454.69;;;29.83;56.56
10097;BME280;5087;42.662;23.466;2023-08-30T10:47:22;94455.47;;;29.75;57.70
10097;BME280;5087;42.662;23.466;2023-08-30T10:49:53;94463.22;;;30.45;59.16
10097;BME280;5087;42.662;23.466;2023-08-30T10:52:21;94455.94;;;30.29;56.48
10097;BME280;5087;42.662;23.466;2023-08-30T10:54:50;94470.09;;;30.35;56.23
10097;BME280;5087;42.662;23.466;2023-08-30T10:57:19;94472.44;;;29.21;58.12
10097;BME280;5087;42.662;23.466;2023-08-30T11:00:06;94472.25;;;27.51;64.72
10097;BME280;5087;42.662;23.466;2023-08-30T11:02:37;94431.47;;;26.15;72.64
10097;BME280;5087;42.662;23.466;2023-08-30T11:05:06;94434.66;;;26.94;70.19
10097;BME280;5087;42.662;23.466;2023-08-30T11:07:34;94442.38;;;26.77;71.29
10097;BME280;5087;42.662;23.466;2023-08-30T11:10:04;94454.25;;;27.77;70.19
10097;BME280;5087;42.662;23.466;2023-08-30T11:12:32;94464.81;;;29.21;64.52
10097;BME280;5087;42.662;23.466;2023-08-30T11:14:59;94417.72;;;29.79;58.48
10097;BME280;5087;42.662;23.466;2023-08-30T11:17:28;94439.03;;;29.77;59.49
10097;BME280;5087;42.662;23.466;2023-08-30T11:20:07;94450.81;;;29.81;60.38
10097;BME280;5087;42.662;23.466;2023-08-30T11:22:36;94443.50;;;30.21;57.05
10097;BME280;5087;42.662;23.466;2023-08-30T11:25:05;94452.03;;;30.45;57.74
10097;BME280;5087;42.662;23.466;2023-08-30T11:27:33;94445.47;;;30.57;53.81
10097;BME280;5087;42.662;23.466;2023-08-30T11:30:02;94450.47;;;30.44;55.51
10097;BME280;5087;42.662;23.466;2023-08-30T11:32:32;94448.94;;;29.78;55.10
10097;BME280;5087;42.662;23.466;2023-08-30T11:35:00;94423.94;;;30.11;53.96
10097;BME280;5087;42.662;23.466;2023-08-30T11:37:30;94422.56;;;30.68;53.54
10097;BME280;5087;42.662;23.466;2023-08-30T11:39:59;94426.53;;;30.52;51.67
10097;BME280;5087;42.662;23.466;2023-08-30T11:42:27;94409.00;;;30.24;50.71
10097;BME280;5087;42.662;23.466;2023-08-30T11:44:54;94432.47;;;29.71;54.24
10097;BME280;5087;42.662;23.466;2023-08-30T11:47:23;94403.06;;;29.19;54.64
10097;BME280;5087;42.662;23.466;2023-08-30T11:49:52;94411.31;;;28.19;57.04
10097;BME280;5087;42.662;23.466;2023-08-30T11:52:22;94402.28;;;28.37;59.37
10097;BME280;5087;42.662;23.466;2023-08-30T11:54:52;94379.91;;;28.28;63.50
10097;BME280;5087;42.662;23.466;2023-08-30T11:57:21;94404.38;;;28.02;64.20
10097;BME280;5087;42.662;23.466;2023-08-30T11:59:49;94413.81;;;28.04;63.41
10097;BME280;5087;42.662;23.466;2023-08-30T12:02:17;94372.44;;;29.25;59.68
10097;BME280;5087;42.662;23.466;2023-08-30T12:04:45;94402.16;;;30.25;52.69
10097;BME280;5087;42.662;23.466;2023-08-30T12:07:21;94378.69;;;30.04;54.09
10097;BME280;5087;42.662;23.466;2023-08-30T12:09:48;94406.66;;;30.74;51.25
10097;BME280;5087;42.662;23.466;2023-08-30T12:12:24;94384.94;;;30.93;49.40
10097;BME280;5087;42.662;23.466;2023-08-30T12:14:55;94358.88;;;30.78;47.50
10097;BME280;5087;42.662;23.466;2023-08-30T12:17:23;94399.47;;;31.16;47.79
10097;BME280;5087;42.662;23.466;2023-08-30T12:19:56;94367.94;;;30.73;48.81
10097;BME280;5087;42.662;23.466;2023-08-30T12:22:23;94378.38;;;30.11;51.55
10097;BME280;5087;42.662;23.466;2023-08-30T12:24:51;94390.19;;;29.41;52.74
10097;BME280;5087;42.662;23.466;2023-08-30T12:27:20;94339.78;;;28.44;54.45
10097;BME280;5087;42.662;23.466;2023-08-30T12:29:49;94392.47;;;28.33;56.01
10097;BME280;5087;42.662;23.466;2023-08-30T12:32:16;94384.13;;;27.88;60.42
10097;BME280;5087;42.662;23.466;2023-08-30T12:34:44;94383.31;;;27.43;65.73
10097;BME280;5087;42.662;23.466;2023-08-30T12:37:12;94396.50;;;27.30;65.07
10097;BME280;5087;42.662;23.466;2023-08-30T12:39:39;94392.31;;;27.12;65.76
10097;BME280;5087;42.662;23.466;2023-08-30T12:42:06;94376.34;;;27.13;69.58
10097;BME280;5087;42.662;23.466;2023-08-30T12:44:35;94389.09;;;27.49;67.77
10097;BME280;5087;42.662;23.466;2023-08-30T12:47:06;94383.88;;;27.73;67.32
10097;BME280;5087;42.662;23.466;2023-08-30T12:49:33;94340.94;;;27.13;63.51
10097;BME280;5087;42.662;23.466;2023-08-30T12:52:01;94336.72;;;27.44;61.98
10097;BME280;5087;42.662;23.466;2023-08-30T12:54:28;94365.00;;;27.77;61.41
10097;BME280;5087;42.662;23.466;2023-08-30T12:56:55;94367.28;;;27.92;59.63
10097;BME280;5087;42.662;23.466;2023-08-30T12:59:23;94353.56;;;28.07;59.34
10097;BME280;5087;42.662;23.466;2023-08-30T13:01:52;94347.59;;;28.58;53.79
10097;BME280;5087;42.662;23.466;2023-08-30T13:04:19;94346.94;;;28.86;52.82
10097;BME280;5087;42.662;23.466;2023-08-30T13:06:47;94364.34;;;28.49;52.04
10097;BME280;5087;42.662;23.466;2023-08-30T13:09:14;94354.41;;;28.17;53.18
10097;BME280;5087;42.662;23.466;2023-08-30T13:11:42;94353.97;;;28.18;58.06